sensor_id;sensor_type;location;lat;lon;timestamp;pressure;altitude;pressure_sealevel;temperature;humidity
37610;BME280;23457;51.966;8.230;2023-08-12T00:00:23;101051.38;;;22.34;98.20
37610;BME280;23457;51.966;8.230;2023-08-12T00:02:50;101063.63;;;22.38;98.42
37610;BME280;23457;51.966;8.230;2023-08-12T00:05:17;101049.78;;;22.60;97.11
37610;BME280;23457;51.966;8.230;2023-08-12T00:07:44;101060.03;;;22.72;94.76
37610;BME280;23457;51.966;8.230;2023-08-12T00:10:14;101071.41;;;22.77;95.04
37610;BME280;23457;51.966;8.230;2023-08-12T00:12:41;101067.84;;;22.78;95.15
37610;BME280;23457;51.966;8.230;2023-08-12T00:15:08;101086.56;;;22.70;94.94
37610;BME280;23457;51.966;8.230;2023-08-12T00:17:37;101085.16;;;22.57;95.41
37610;BME280;23457;51.966;8.230;2023-08-12T00:20:05;101095.25;;;22.43;96.63
37610;BME280;23457;51.966;8.230;2023-08-12T00:22:33;101085.28;;;22.54;96.61
37610;BME280;23457;51.966;8.230;2023-08-12T00:25:00;101081.00;;;22.48;97.34
37610;BME280;23457;51.966;8.230;2023-08-12T00:27:27;101079.78;;;22.60;96.86
37610;BME280;23457;51.966;8.230;2023-08-12T00:29:54;101081.88;;;22.49;97.30
37610;BME280;23457;51.966;8.230;2023-08-12T00:32:20;101081.22;;;22.41;99.03
37610;BME280;23457;51.966;8.230;2023-08-12T00:34:47;101077.47;;;22.15;100.00
37610;BME280;23457;51.966;8.230;2023-08-12T00:37:14;101076.38;;;22.24;100.00
37610;BME280;23457;51.966;8.230;2023-08-12T00:39:41;101077.84;;;22.34;99.14
37610;BME280;23457;51.966;8.230;2023-08-12T00:42:08;101073.44;;;22.01;100.00
37610;BME280;23457;51.966;8.230;2023-08-12T00:44:35;101082.28;;;22.00;100.00
37610;BME280;23457;51.966;8.230;2023-08-12T00:47:02;101087.63;;;21.97;100.00
37610;BME280;23457;51.966;8.230;2023-08-12T00:49:31;101075.56;;;21.85;100.00
37610;BME280;23457;51.966;8.230;2023-08-12T00:51:58;101083.25;;;21.94;100.00
37610;BME280;23457;51.966;8.230;2023-08-12T00:54:27;101084.75;;;22.06;100.00
37610;BME280;23457;51.966;8.230;2023-08-12T00:56:54;101073.34;;;22.04;100.00
37610;BME280;23457;51.966;8.230;2023-08-12T00:59:22;101063.91;;;21.92;100.00
37610;BME280;23457;51.966;8.230;2023-08-12T01:01:49;101070.88;;;21.96;100.00
37610;BME280;23457;51.966;8.230;2023-08-12T01:04:16;101059.09;;;21.74;100.00
37610;BME280;23457;51.966;8.230;2023-08-12T01:06:43;101045.84;;;21.75;100.00
37610;BME280;23457;51.966;8.230;2023-08-12T01:09:10;101051.88;;;21.79;100.00
37610;BME280;23457;51.966;8.230;2023-08-12T01:11:51;101054.53;;;21.79;100.00
37610;BME280;23457;51.966;8.230;2023-08-12T01:16:57;101067.47;;;21.54;100.00
37610;BME280;23457;51.966;8.230;2023-08-12T01:19:37;101047.72;;;21.70;100.00
37610;BME280;23457;51.966;8.230;2023-08-12T01:22:08;101045.66;;;21.81;100.00
37610;BME280;23457;51.966;8.230;2023-08-12T01:24:42;101043.91;;;21.80;100.00
37610;BME280;23457;51.966;8.230;2023-08-12T01:27:10;101039.94;;;21.64;100.00
37610;BME280;23457;51.966;8.230;2023-08-12T01:29:41;101034.97;;;21.51;100.00
37610;BME280;23457;51.966;8.230;2023-08-12T01:35:41;101054.38;;;21.51;100.00
37610;BME280;23457;51.966;8.230;2023-08-12T01:38:10;101058.69;;;21.54;100.00
37610;BME280;23457;51.966;8.230;2023-08-12T01:40:39;101062.50;;;21.42;100.00
37610;BME280;23457;51.966;8.230;2023-08-12T01:43:09;101057.69;;;21.59;100.00
37610;BME280;23457;51.966;8.230;2023-08-12T01:45:36;101039.09;;;21.62;100.00
37610;BME280;23457;51.966;8.230;2023-08-12T01:48:03;101041.78;;;21.61;100.00
37610;BME280;23457;51.966;8.230;2023-08-12T01:50:30;101051.38;;;21.65;100.00
37610;BME280;23457;51.966;8.230;2023-08-12T01:52:57;101052.94;;;21.73;100.00
37610;BME280;23457;51.966;8.230;2023-08-12T01:55:25;101039.47;;;21.83;100.00
37610;BME280;23457;51.966;8.230;2023-08-12T01:57:51;101038.66;;;21.79;100.00
37610;BME280;23457;51.966;8.230;2023-08-12T02:00:18;101038.63;;;21.80;100.00
37610;BME280;23457;51.966;8.230;2023-08-12T02:02:45;101036.50;;;21.61;100.00
37610;BME280;23457;51.966;8.230;2023-08-12T02:05:16;101046.44;;;21.51;100.00
37610;BME280;23457;51.966;8.230;2023-08-12T02:07:43;101039.22;;;21.56;100.00
37610;BME280;23457;51.966;8.230;2023-08-12T02:10:10;101035.38;;;21.69;100.00
37610;BME280;23457;51.966;8.230;2023-08-12T02:12:37;101031.69;;;21.76;100.00
37610;BME280;23457;51.966;8.230;2023-08-12T02:15:05;101032.44;;;21.81;100.00
37610;BME280;23457;51.966;8.230;2023-08-12T02:17:32;101040.31;;;21.85;100.00
37610;BME280;23457;51.966;8.230;2023-08-12T02:19:59;101037.03;;;21.75;100.00
37610;BME280;23457;51.966;8.230;2023-08-12T02:22:26;101039.47;;;21.83;100.00
37610;BME280;23457;51.966;8.230;2023-08-12T02:24:52;101042.94;;;21.85;100.00
37610;BME280;23457;51.966;8.230;2023-08-12T02:27:20;101041.97;;;21.89;100.00
37610;BME280;23457;51.966;8.230;2023-08-12T02:29:47;101038.63;;;21.80;100.00
37610;BME280;23457;51.966;8.230;2023-08-12T02:32:13;101036.13;;;21.76;100.00
37610;BME280;23457;51.966;8.230;2023-08-12T02:34:40;101035.34;;;21.71;100.00
37610;BME280;23457;51.966;8.230;2023-08-12T02:37:09;101037.97;;;21.72;100.00
37610;BME280;23457;51.966;8.230;2023-08-12T02:39:36;101032.47;;;21.80;100.00
37610;BME280;23457;51.966;8.230;2023-08-12T02:42:03;101033.66;;;21.68;100.00
37610;BME280;23457;51.966;8.230;2023-08-12T02:44:30;101030.81;;;21.76;100.00
37610;BME280;23457;51.966;8.230;2023-08-12T02:46:56;101023.19;;;21.64;100.00
37610;BME280;23457;51.966;8.230;2023-08-12T02:49:23;101026.72;;;21.64;100.00
37610;BME280;23457;51.966;8.230;2023-08-12T02:51:50;101030.16;;;21.66;100.00
37610;BME280;23457;51.966;8.230;2023-08-12T02:54:17;101031.25;;;21.58;100.00
37610;BME280;23457;51.966;8.230;2023-08-12T02:56:44;101044.59;;;21.53;100.00
37610;BME280;23457;51.966;8.230;2023-08-12T02:59:10;101037.69;;;21.48;100.00
37610;BME280;23457;51.966;8.230;2023-08-12T03:01:37;101044.47;;;21.59;100.00
37610;BME280;23457;51.966;8.230;2023-08-12T03:04:04;101036.88;;;21.44;100.00
37610;BME280;23457;51.966;8.230;2023-08-12T03:06:31;101041.19;;;21.48;100.00
37610;BME280;23457;51.966;8.230;2023-08-12T03:08:58;101044.75;;;21.47;100.00
37610;BME280;23457;51.966;8.230;2023-08-12T03:11:25;101036.75;;;21.50;100.00
37610;BME280;23457;51.966;8.230;2023-08-12T03:13:54;101044.09;;;21.37;100.00
37610;BME280;23457;51.966;8.230;2023-08-12T03:16:23;101050.16;;;21.41;100.00
37610;BME280;23457;51.966;8.230;2023-08-12T03:18:51;101042.97;;;21.48;100.00
37610;BME280;23457;51.966;8.230;2023-08-12T03:21:18;101047.78;;;21.30;100.00
37610;BME280;23457;51.966;8.230;2023-08-12T03:23:46;101041.31;;;21.43;100.00
37610;BME280;23457;51.966;8.230;2023-08-12T03:26:13;101041.28;;;21.45;100.00
37610;BME280;23457;51.966;8.230;2023-08-12T03:28:40;101033.38;;;21.43;100.00
37610;BME280;23457;51.966;8.230;2023-08-12T03:31:09;101033.16;;;21.53;100.00
37610;BME280;23457;51.966;8.230;2023-08-12T03:33:36;101031.34;;;21.55;100.00
37610;BME280;23457;51.966;8.230;2023-08-12T03:36:04;101026.84;;;21.58;100.00
37610;BME280;23457;51.966;8.230;2023-08-12T03:38:31;101016.31;;;21.57;100.00
37610;BME280;23457;51.966;8.230;2023-08-12T03:40:58;101014.47;;;21.60;100.00
37610;BME280;23457;51.966;8.230;2023-08-12T03:43:25;101008.31;;;21.60;100.00
37610;BME280;23457;51.966;8.230;2023-08-12T03:45:52;101007.56;;;21.53;100.00
37610;BME280;23457;51.966;8.230;2023-08-12T03:48:20;101003.16;;;21.54;100.00
37610;BME280;23457;51.966;8.230;2023-08-12T03:50:47;101005.72;;;21.57;100.00
37610;BME280;23457;51.966;8.230;2023-08-12T03:53:14;101011.22;;;21.49;100.00
37610;BME280;23457;51.966;8.230;2023-08-12T03:55:41;101005.84;;;21.52;100.00
37610;BME280;23457;51.966;8.230;2023-08-12T03:58:09;101004.09;;;21.53;100.00
37610;BME280;23457;51.966;8.230;2023-08-12T04:00:40;101018.38;;;21.44;100.00
37610;BME280;23457;51.966;8.230;2023-08-12T04:03:09;101004.44;;;21.37;100.00
37610;BME280;23457;51.966;8.230;2023-08-12T04:05:36;101011.69;;;21.28;100.00
37610;BME280;23457;51.966;8.230;2023-08-12T04:08:03;100999.03;;;21.42;100.00
37610;BME280;23457;51.966;8.230;2023-08-12T04:10:30;101004.88;;;21.55;100.00
37610;BME280;23457;51.966;8.230;2023-08-12T04:12:57;101000.63;;;21.49;100.00
37610;BME280;23457;51.966;8.230;2023-08-12T04:15:24;100990.34;;;21.37;100.00
37610;BME280;23457;51.966;8.230;2023-08-12T04:17:51;100998.97;;;21.45;100.00
37610;BME280;23457;51.966;8.230;2023-08-12T04:20:18;100992.06;;;21.39;100.00
37610;BME280;23457;51.966;8.230;2023-08-12T04:22:45;100981.34;;;21.44;100.00
37610;BME280;23457;51.966;8.230;2023-08-12T04:25:18;100981.13;;;21.53;100.00
37610;BME280;23457;51.966;8.230;2023-08-12T04:27:45;100979.41;;;21.52;100.00
37610;BME280;23457;51.966;8.230;2023-08-12T04:30:17;100979.56;;;21.46;100.00
37610;BME280;23457;51.966;8.230;2023-08-12T04:32:46;100988.38;;;21.45;100.00
37610;BME280;23457;51.966;8.230;2023-08-12T04:35:13;100983.03;;;21.48;100.00
37610;BME280;23457;51.966;8.230;2023-08-12T04:37:41;100980.34;;;21.50;100.00
37610;BME280;23457;51.966;8.230;2023-08-12T04:40:11;100982.88;;;21.54;100.00
37610;BME280;23457;51.966;8.230;2023-08-12T04:42:39;100977.69;;;21.51;100.00
37610;BME280;23457;51.966;8.230;2023-08-12T04:45:08;100974.03;;;21.55;100.00
37610;BME280;23457;51.966;8.230;2023-08-12T04:47:35;100959.81;;;21.59;100.00
37610;BME280;23457;51.966;8.230;2023-08-12T04:50:02;100972.28;;;21.54;100.00
37610;BME280;23457;51.966;8.230;2023-08-12T04:52:30;100966.94;;;21.57;100.00
37610;BME280;23457;51.966;8.230;2023-08-12T04:54:57;100949.25;;;21.59;100.00
37610;BME280;23457;51.966;8.230;2023-08-12T04:57:25;100951.00;;;21.60;100.00
37610;BME280;23457;51.966;8.230;2023-08-12T04:59:53;100951.00;;;21.60;100.00
37610;BME280;23457;51.966;8.230;2023-08-12T05:02:20;100937.00;;;21.55;100.00
37610;BME280;23457;51.966;8.230;2023-08-12T05:04:49;100952.75;;;21.60;100.00
37610;BME280;23457;51.966;8.230;2023-08-12T05:07:17;100949.22;;;21.61;100.00
37610;BME280;23457;51.966;8.230;2023-08-12T05:09:44;100947.72;;;21.51;100.00
37610;BME280;23457;51.966;8.230;2023-08-12T05:12:13;100936.16;;;21.53;100.00
37610;BME280;23457;51.966;8.230;2023-08-12T05:14:40;100945.69;;;21.60;100.00
37610;BME280;23457;51.966;8.230;2023-08-12T05:17:08;100928.03;;;21.62;100.00
37610;BME280;23457;51.966;8.230;2023-08-12T05:19:35;100923.75;;;21.57;100.00
37610;BME280;23457;51.966;8.230;2023-08-12T05:22:02;100917.44;;;21.62;100.00
37610;BME280;23457;51.966;8.230;2023-08-12T05:24:29;100922.72;;;21.62;100.00
37610;BME280;23457;51.966;8.230;2023-08-12T05:26:56;100917.47;;;21.61;100.00
37610;BME280;23457;51.966;8.230;2023-08-12T05:29:22;100915.44;;;21.70;100.00
37610;BME280;23457;51.966;8.230;2023-08-12T05:31:49;100906.81;;;21.64;100.00
37610;BME280;23457;51.966;8.230;2023-08-12T05:34:16;100906.13;;;21.56;100.00
37610;BME280;23457;51.966;8.230;2023-08-12T05:36:43;100909.50;;;21.62;100.00
37610;BME280;23457;51.966;8.230;2023-08-12T05:39:10;100909.69;;;21.55;100.00
37610;BME280;23457;51.966;8.230;2023-08-12T05:41:37;100909.19;;;21.74;100.00
37610;BME280;23457;51.966;8.230;2023-08-12T05:44:05;100909.09;;;21.77;100.00
37610;BME280;23457;51.966;8.230;2023-08-12T05:46:31;100914.25;;;21.82;100.00
37610;BME280;23457;51.966;8.230;2023-08-12T05:48:58;100912.31;;;21.89;100.00
37610;BME280;23457;51.966;8.230;2023-08-12T05:51:25;100915.84;;;21.89;100.00
37610;BME280;23457;51.966;8.230;2023-08-12T05:53:56;100915.13;;;21.83;100.00
37610;BME280;23457;51.966;8.230;2023-08-12T05:56:22;100915.03;;;21.86;100.00
37610;BME280;23457;51.966;8.230;2023-08-12T05:58:49;100899.16;;;21.86;100.00
37610;BME280;23457;51.966;8.230;2023-08-12T06:01:17;100906.78;;;21.65;100.00
37610;BME280;23457;51.966;8.230;2023-08-12T06:03:43;100910.81;;;21.78;100.00
37610;BME280;23457;51.966;8.230;2023-08-12T06:06:10;100904.47;;;21.86;100.00
37610;BME280;23457;51.966;8.230;2023-08-12T06:08:37;100899.25;;;21.83;100.00
37610;BME280;23457;51.966;8.230;2023-08-12T06:11:04;100895.88;;;21.77;100.00
37610;BME280;23457;51.966;8.230;2023-08-12T06:13:30;100896.69;;;21.79;100.00
37610;BME280;23457;51.966;8.230;2023-08-12T06:15:57;100890.31;;;21.87;100.00
37610;BME280;23457;51.966;8.230;2023-08-12T06:18:24;100900.91;;;21.87;100.00
37610;BME280;23457;51.966;8.230;2023-08-12T06:20:50;100885.81;;;21.90;100.00
37610;BME280;23457;51.966;8.230;2023-08-12T06:23:17;100892.13;;;21.85;100.00
37610;BME280;23457;51.966;8.230;2023-08-12T06:25:44;100894.56;;;21.92;100.00
37610;BME280;23457;51.966;8.230;2023-08-12T06:28:10;100891.72;;;22.01;100.00
37610;BME280;23457;51.966;8.230;2023-08-12T06:30:37;100878.91;;;21.85;100.00
37610;BME280;23457;51.966;8.230;2023-08-12T06:33:04;100885.72;;;21.93;100.00
37610;BME280;23457;51.966;8.230;2023-08-12T06:35:30;100878.53;;;21.98;100.00
37610;BME280;23457;51.966;8.230;2023-08-12T06:37:57;100875.88;;;21.98;100.00
37610;BME280;23457;51.966;8.230;2023-08-12T06:40:24;100867.44;;;22.16;100.00
37610;BME280;23457;51.966;8.230;2023-08-12T06:42:51;100862.13;;;22.16;100.00
37610;BME280;23457;51.966;8.230;2023-08-12T06:45:17;100869.88;;;22.24;100.00
37610;BME280;23457;51.966;8.230;2023-08-12T06:47:44;100855.81;;;22.22;100.00
37610;BME280;23457;51.966;8.230;2023-08-12T06:50:14;100867.59;;;22.41;100.00
37610;BME280;23457;51.966;8.230;2023-08-12T06:52:40;100865.75;;;22.43;100.00
37610;BME280;23457;51.966;8.230;2023-08-12T06:55:07;100868.88;;;22.28;100.00
37610;BME280;23457;51.966;8.230;2023-08-12T06:57:37;100862.72;;;22.28;100.00
37610;BME280;23457;51.966;8.230;2023-08-12T07:00:04;100866.34;;;22.53;100.00
37610;BME280;23457;51.966;8.230;2023-08-12T07:02:31;100866.84;;;22.66;100.00
37610;BME280;23457;51.966;8.230;2023-08-12T07:04:58;100866.63;;;22.72;100.00
37610;BME280;23457;51.966;8.230;2023-08-12T07:07:25;100870.97;;;22.76;100.00
37610;BME280;23457;51.966;8.230;2023-08-12T07:09:51;100869.75;;;22.86;100.00
37610;BME280;23457;51.966;8.230;2023-08-12T07:12:18;100877.50;;;22.92;100.00
37610;BME280;23457;51.966;8.230;2023-08-12T07:14:45;100870.59;;;22.86;100.00
37610;BME280;23457;51.966;8.230;2023-08-12T07:17:12;100876.47;;;22.96;100.00
37610;BME280;23457;51.966;8.230;2023-08-12T07:19:38;100879.94;;;22.98;100.00
37610;BME280;23457;51.966;8.230;2023-08-12T07:22:05;100868.53;;;23.22;100.00
37610;BME280;23457;51.966;8.230;2023-08-12T07:24:32;100864.59;;;23.34;100.00
37610;BME280;23457;51.966;8.230;2023-08-12T07:26:58;100876.63;;;23.18;100.00
37610;BME280;23457;51.966;8.230;2023-08-12T07:29:25;100878.44;;;23.17;100.00
37610;BME280;23457;51.966;8.230;2023-08-12T07:31:52;100870.22;;;23.25;100.00
37610;BME280;23457;51.966;8.230;2023-08-12T07:34:19;100862.91;;;23.32;100.00
37610;BME280;23457;51.966;8.230;2023-08-12T07:36:46;100869.63;;;23.17;100.00
37610;BME280;23457;51.966;8.230;2023-08-12T07:39:13;100873.72;;;23.26;100.00
37610;BME280;23457;51.966;8.230;2023-08-12T07:41:40;100867.91;;;23.41;100.00
37610;BME280;23457;51.966;8.230;2023-08-12T07:44:06;100872.44;;;23.37;100.00
37610;BME280;23457;51.966;8.230;2023-08-12T07:46:33;100862.59;;;23.41;100.00
37610;BME280;23457;51.966;8.230;2023-08-12T07:49:00;100865.41;;;23.36;100.00
37610;BME280;23457;51.966;8.230;2023-08-12T07:51:27;100867.59;;;23.23;100.00
37610;BME280;23457;51.966;8.230;2023-08-12T07:53:54;100863.00;;;23.04;100.00
37610;BME280;23457;51.966;8.230;2023-08-12T07:56:20;100857.56;;;23.07;100.00
37610;BME280;23457;51.966;8.230;2023-08-12T07:58:47;100851.97;;;22.90;100.00
37610;BME280;23457;51.966;8.230;2023-08-12T08:01:14;100844.56;;;22.99;100.00
37610;BME280;23457;51.966;8.230;2023-08-12T08:03:41;100843.16;;;22.89;100.00
37610;BME280;23457;51.966;8.230;2023-08-12T08:06:07;100835.94;;;22.93;100.00
37610;BME280;23457;51.966;8.230;2023-08-12T08:08:34;100832.03;;;23.04;100.00
37610;BME280;23457;51.966;8.230;2023-08-12T08:11:01;100830.63;;;23.19;100.00
37610;BME280;23457;51.966;8.230;2023-08-12T08:13:28;100835.91;;;22.94;100.00
37610;BME280;23457;51.966;8.230;2023-08-12T08:15:55;100840.78;;;23.06;100.00
37610;BME280;23457;51.966;8.230;2023-08-12T08:18:22;100827.91;;;22.96;100.00
37610;BME280;23457;51.966;8.230;2023-08-12T08:20:49;100837.59;;;22.97;100.00
37610;BME280;23457;51.966;8.230;2023-08-12T08:23:15;100826.22;;;22.65;100.00
37610;BME280;23457;51.966;8.230;2023-08-12T08:25:42;100828.56;;;22.74;100.00
37610;BME280;23457;51.966;8.230;2023-08-12T08:28:09;100836.53;;;22.74;100.00
37610;BME280;23457;51.966;8.230;2023-08-12T08:30:40;100831.16;;;22.77;100.00
37610;BME280;23457;51.966;8.230;2023-08-12T08:33:08;100824.31;;;22.69;100.00
37610;BME280;23457;51.966;8.230;2023-08-12T08:35:37;100820.97;;;22.64;100.00
37610;BME280;23457;51.966;8.230;2023-08-12T08:38:08;100821.16;;;22.58;100.00
37610;BME280;23457;51.966;8.230;2023-08-12T08:40:45;100821.81;;;22.66;100.00
37610;BME280;23457;51.966;8.230;2023-08-12T08:43:21;100824.16;;;22.75;100.00
37610;BME280;23457;51.966;8.230;2023-08-12T08:46:06;100824.38;;;22.67;100.00
37610;BME280;23457;51.966;8.230;2023-08-12T08:48:43;100831.91;;;22.81;100.00
37610;BME280;23457;51.966;8.230;2023-08-12T08:51:14;100840.50;;;22.89;100.00
37610;BME280;23457;51.966;8.230;2023-08-12T08:53:56;100839.59;;;22.90;100.00
37610;BME280;23457;51.966;8.230;2023-08-12T08:56:33;100832.34;;;22.95;100.00
37610;BME280;23457;51.966;8.230;2023-08-12T08:59:22;100808.19;;;23.04;100.00
37610;BME280;23457;51.966;8.230;2023-08-12T09:02:00;100812.50;;;23.07;100.00
37610;BME280;23457;51.966;8.230;2023-08-12T09:04:33;100806.00;;;23.17;100.00
37610;BME280;23457;51.966;8.230;2023-08-12T09:07:09;100807.88;;;23.38;100.00
37610;BME280;23457;51.966;8.230;2023-08-12T09:09:44;100797.56;;;23.55;100.00
37610;BME280;23457;51.966;8.230;2023-08-12T09:12:24;100781.94;;;23.46;100.00
37610;BME280;23457;51.966;8.230;2023-08-12T09:15:10;100780.44;;;23.64;100.00
37610;BME280;23457;51.966;8.230;2023-08-12T09:17:51;100786.88;;;23.57;100.00
37610;BME280;23457;51.966;8.230;2023-08-12T09:20:23;100789.31;;;23.38;100.00
37610;BME280;23457;51.966;8.230;2023-08-12T09:22:56;100777.38;;;23.51;100.00
37610;BME280;23457;51.966;8.230;2023-08-12T09:25:28;100788.91;;;23.97;100.00
37610;BME280;23457;51.966;8.230;2023-08-12T09:27:58;100775.22;;;24.08;100.00
37610;BME280;23457;51.966;8.230;2023-08-12T09:30:30;100781.63;;;23.80;100.00
37610;BME280;23457;51.966;8.230;2023-08-12T09:33:05;100784.00;;;24.10;100.00
37610;BME280;23457;51.966;8.230;2023-08-12T09:35:41;100786.19;;;24.22;100.00
37610;BME280;23457;51.966;8.230;2023-08-12T09:38:12;100782.88;;;23.93;100.00
37610;BME280;23457;51.966;8.230;2023-08-12T09:40:39;100783.91;;;23.89;100.00
37610;BME280;23457;51.966;8.230;2023-08-12T09:43:08;100777.59;;;23.93;100.00
37610;BME280;23457;51.966;8.230;2023-08-12T09:45:35;100787.72;;;24.06;100.00
37610;BME280;23457;51.966;8.230;2023-08-12T09:48:03;100791.06;;;24.11;100.00
37610;BME280;23457;51.966;8.230;2023-08-12T09:50:30;100789.09;;;24.16;100.00
37610;BME280;23457;51.966;8.230;2023-08-12T09:52:57;100778.53;;;24.14;100.00
37610;BME280;23457;51.966;8.230;2023-08-12T09:55:25;100780.50;;;24.09;100.00
37610;BME280;23457;51.966;8.230;2023-08-12T09:57:53;100777.22;;;24.26;100.00
37610;BME280;23457;51.966;8.230;2023-08-12T10:00:21;100788.75;;;24.25;100.00
37610;BME280;23457;51.966;8.230;2023-08-12T10:02:50;100792.56;;;24.18;100.00
37610;BME280;23457;51.966;8.230;2023-08-12T10:05:24;100789.56;;;24.27;100.00
37610;BME280;23457;51.966;8.230;2023-08-12T10:07:54;100786.88;;;24.28;100.00
37610;BME280;23457;51.966;8.230;2023-08-12T10:10:21;100793.38;;;23.97;100.00
37610;BME280;23457;51.966;8.230;2023-08-12T10:12:51;100785.81;;;23.86;100.00
37610;BME280;23457;51.966;8.230;2023-08-12T10:15:21;100788.06;;;23.97;100.00
37610;BME280;23457;51.966;8.230;2023-08-12T10:17:51;100781.31;;;24.11;100.00
37610;BME280;23457;51.966;8.230;2023-08-12T10:20:23;100778.69;;;24.10;100.00
37610;BME280;23457;51.966;8.230;2023-08-12T10:22:51;100787.38;;;23.91;100.00
37610;BME280;23457;51.966;8.230;2023-08-12T10:25:19;100789.69;;;24.01;100.00
37610;BME280;23457;51.966;8.230;2023-08-12T10:27:49;100781.16;;;23.92;100.00
37610;BME280;23457;51.966;8.230;2023-08-12T10:30:16;100777.22;;;24.03;100.00
37610;BME280;23457;51.966;8.230;2023-08-12T10:32:43;100771.25;;;23.96;100.00
37610;BME280;23457;51.966;8.230;2023-08-12T10:35:13;100767.59;;;24.00;100.00
37610;BME280;23457;51.966;8.230;2023-08-12T10:37:40;100772.94;;;23.99;100.00
37610;BME280;23457;51.966;8.230;2023-08-12T10:40:20;100778.94;;;23.57;100.00
37610;BME280;23457;51.966;8.230;2023-08-12T10:42:48;100776.34;;;23.55;100.00
37610;BME280;23457;51.966;8.230;2023-08-12T10:45:18;100777.28;;;23.54;100.00
37610;BME280;23457;51.966;8.230;2023-08-12T10:48:09;100770.59;;;23.68;100.00
37610;BME280;23457;51.966;8.230;2023-08-12T10:50:46;100772.50;;;23.87;100.00
37610;BME280;23457;51.966;8.230;2023-08-12T10:53:27;100766.47;;;23.82;100.00
37610;BME280;23457;51.966;8.230;2023-08-12T10:56:00;100757.00;;;23.99;100.00
37610;BME280;23457;51.966;8.230;2023-08-12T10:58:44;100757.47;;;24.10;100.00
37610;BME280;23457;51.966;8.230;2023-08-12T11:01:17;100770.59;;;24.36;100.00
37610;BME280;23457;51.966;8.230;2023-08-12T11:03:45;100764.91;;;24.45;100.00
37610;BME280;23457;51.966;8.230;2023-08-12T11:06:12;100764.19;;;24.42;100.00
37610;BME280;23457;51.966;8.230;2023-08-12T11:09:08;100764.69;;;24.51;100.00
37610;BME280;23457;51.966;8.230;2023-08-12T11:11:36;100767.34;;;24.30;100.00
37610;BME280;23457;51.966;8.230;2023-08-12T11:14:11;100759.31;;;24.08;100.00
37610;BME280;23457;51.966;8.230;2023-08-12T11:16:42;100765.56;;;24.30;100.00
37610;BME280;23457;51.966;8.230;2023-08-12T11:19:09;100758.09;;;24.16;100.00
37610;BME280;23457;51.966;8.230;2023-08-12T11:21:36;100762.28;;;24.00;100.00
37610;BME280;23457;51.966;8.230;2023-08-12T11:24:03;100760.94;;;24.12;100.00
37610;BME280;23457;51.966;8.230;2023-08-12T11:26:30;100764.63;;;24.08;100.00
37610;BME280;23457;51.966;8.230;2023-08-12T11:28:57;100757.91;;;24.21;100.00
37610;BME280;23457;51.966;8.230;2023-08-12T11:31:24;100760.13;;;24.10;100.00
37610;BME280;23457;51.966;8.230;2023-08-12T11:33:50;100764.00;;;24.46;100.00
37610;BME280;23457;51.966;8.230;2023-08-12T11:36:20;100754.41;;;24.64;100.00
37610;BME280;23457;51.966;8.230;2023-08-12T11:38:47;100756.22;;;24.84;100.00
37610;BME280;23457;51.966;8.230;2023-08-12T11:41:13;100750.16;;;25.02;100.00
37610;BME280;23457;51.966;8.230;2023-08-12T11:43:40;100750.25;;;24.79;100.00
37610;BME280;23457;51.966;8.230;2023-08-12T11:46:07;100744.09;;;24.78;100.00
37610;BME280;23457;51.966;8.230;2023-08-12T11:48:33;100744.72;;;24.63;100.00
37610;BME280;23457;51.966;8.230;2023-08-12T11:51:00;100748.34;;;24.60;100.00
37610;BME280;23457;51.966;8.230;2023-08-12T11:53:27;100745.59;;;24.63;100.00
37610;BME280;23457;51.966;8.230;2023-08-12T11:55:54;100744.75;;;24.41;100.00
37610;BME280;23457;51.966;8.230;2023-08-12T11:58:21;100750.53;;;24.51;100.00
37610;BME280;23457;51.966;8.230;2023-08-12T12:00:49;100740.94;;;24.47;100.00
37610;BME280;23457;51.966;8.230;2023-08-12T12:03:16;100756.94;;;24.45;100.00
37610;BME280;23457;51.966;8.230;2023-08-12T12:05:46;100745.03;;;24.55;100.00
37610;BME280;23457;51.966;8.230;2023-08-12T12:08:13;100739.94;;;24.71;100.00
37610;BME280;23457;51.966;8.230;2023-08-12T12:10:40;100731.94;;;24.51;100.00
37610;BME280;23457;51.966;8.230;2023-08-12T12:13:07;100738.50;;;24.42;100.00
37610;BME280;23457;51.966;8.230;2023-08-12T12:15:41;100735.72;;;24.23;100.00
37610;BME280;23457;51.966;8.230;2023-08-12T12:18:11;100737.50;;;24.23;100.00
37610;BME280;23457;51.966;8.230;2023-08-12T12:20:58;100742.31;;;24.35;100.00
37610;BME280;23457;51.966;8.230;2023-08-12T12:23:29;100740.00;;;24.04;100.00
37610;BME280;23457;51.966;8.230;2023-08-12T12:26:00;100740.66;;;24.09;100.00
37610;BME280;23457;51.966;8.230;2023-08-12T12:28:28;100744.13;;;24.11;100.00
37610;BME280;23457;51.966;8.230;2023-08-12T12:30:55;100741.53;;;24.10;100.00
37610;BME280;23457;51.966;8.230;2023-08-12T12:33:22;100738.06;;;24.31;100.00
37610;BME280;23457;51.966;8.230;2023-08-12T12:35:49;100732.81;;;24.30;100.00
37610;BME280;23457;51.966;8.230;2023-08-12T12:38:23;100737.19;;;24.07;100.00
37610;BME280;23457;51.966;8.230;2023-08-12T12:40:50;100746.41;;;23.99;100.00
37610;BME280;23457;51.966;8.230;2023-08-12T12:43:16;100742.88;;;23.98;100.00
37610;BME280;23457;51.966;8.230;2023-08-12T12:45:43;100746.13;;;24.06;100.00
37610;BME280;23457;51.966;8.230;2023-08-12T12:48:10;100743.38;;;24.08;100.00
37610;BME280;23457;51.966;8.230;2023-08-12T12:50:37;100745.25;;;24.06;100.00
37610;BME280;23457;51.966;8.230;2023-08-12T12:53:04;100745.69;;;24.17;100.00